Time;durP1;ratioP1;P1;durP2;ratioP2;P2;SDS_P1;SDS_P2;PMS_P1;PMS_P2;Temp;Humidity;BMP_temperature;BMP_pressure;BME280_temperature;BME280_humidity;BME280_pressure;Samples;Min_cycle;Max_cycle;Signal;HPM_P1;HPM_P2
2023/09/19 00:00:25;;;;;;;8.43;7.57;;;;;;;;;;4413421;32;318099;-83
2023/09/19 00:02:57;;;;;;;15.35;7.95;;;;;;;;;;4398067;32;316994;-83
2023/09/19 00:05:27;;;;;;;22.52;8.85;;;;;;;;;;4414105;32;317811;-83
2023/09/19 00:07:56;;;;;;;19.35;8.88;;;;;;;;;;4400776;32;416986;-84
2023/09/19 00:10:24;;;;;;;14.98;9.63;;;;;;;;;;4413702;32;317593;-84
2023/09/19 00:12:55;;;;;;;13.05;8.98;;;;;;;;;;4397702;32;317933;-83
2023/09/19 00:15:22;;;;;;;12.27;9.25;;;;;;;;;;4413473;32;317910;-83
2023/09/19 00:17:52;;;;;;;17.90;9.73;;;;;;;;;;4401216;32;317904;-83
2023/09/19 00:20:21;;;;;;;18.83;9.10;;;;;;;;;;4412647;32;317828;-83
2023/09/19 00:22:49;;;;;;;21.23;10.27;;;;;;;;;;4399090;32;317818;-84
2023/09/19 00:25:16;;;;;;;14.18;9.55;;;;;;;;;;4412664;32;319047;-85
2023/09/19 00:27:44;;;;;;;12.90;9.80;;;;;;;;;;4403218;32;318121;-85
2023/09/19 00:30:16;;;;;;;10.63;9.32;;;;;;;;;;4411670;32;323046;-84
2023/09/19 00:32:44;;;;;;;12.23;9.15;;;;;;;;;;4399303;32;317839;-84
2023/09/19 00:35:11;;;;;;;12.37;9.88;;;;;;;;;;4413355;32;317924;-86
2023/09/19 00:37:40;;;;;;;14.60;9.13;;;;;;;;;;4401776;32;335343;-84
2023/09/19 00:40:11;;;;;;;16.70;10.90;;;;;;;;;;4413176;32;317813;-84
2023/09/19 00:42:40;;;;;;;20.67;10.20;;;;;;;;;;4398297;32;331455;-85
2023/09/19 00:45:11;;;;;;;14.57;10.35;;;;;;;;;;4411337;32;318914;-83
2023/09/19 00:47:40;;;;;;;13.35;10.18;;;;;;;;;;4402332;32;319185;-83
2023/09/19 00:50:14;;;;;;;12.37;10.73;;;;;;;;;;4415171;32;318715;-86
2023/09/19 00:52:43;;;;;;;13.75;9.20;;;;;;;;;;4405040;32;318967;-85
2023/09/19 00:55:14;;;;;;;22.75;9.95;;;;;;;;;;4412296;32;354435;-86
2023/09/19 00:57:41;;;;;;;14.15;9.45;;;;;;;;;;4403591;32;317704;-85
2023/09/19 01:00:15;;;;;;;11.95;9.68;;;;;;;;;;4416727;32;317757;-85
2023/09/19 01:02:44;;;;;;;15.70;8.82;;;;;;;;;;4403489;32;317952;-85
2023/09/19 01:05:13;;;;;;;12.85;8.75;;;;;;;;;;4412930;32;316859;-84
2023/09/19 01:07:41;;;;;;;13.40;9.65;;;;;;;;;;4402814;32;317976;-84
2023/09/19 01:10:12;;;;;;;13.10;9.30;;;;;;;;;;4416436;32;317811;-84
2023/09/19 01:12:49;;;;;;;12.37;9.30;;;;;;;;;;4404585;32;317886;-86
2023/09/19 01:15:27;;;;;;;10.75;9.10;;;;;;;;;;4415505;32;317544;-83
2023/09/19 01:18:03;;;;;;;11.57;9.65;;;;;;;;;;4401949;32;417326;-83
2023/09/19 01:20:41;;;;;;;13.55;10.13;;;;;;;;;;4404978;32;317700;-84
2023/09/19 01:23:23;;;;;;;16.40;8.82;;;;;;;;;;4415334;32;319200;-84
2023/09/19 01:26:08;;;;;;;14.00;8.77;;;;;;;;;;4405860;32;317867;-83
2023/09/19 01:28:47;;;;;;;14.60;9.27;;;;;;;;;;4405190;32;318082;-85
2023/09/19 01:31:19;;;;;;;19.92;9.13;;;;;;;;;;4414310;32;317879;-83
2023/09/19 01:34:01;;;;;;;9.07;7.62;;;;;;;;;;4403468;32;318010;-85
2023/09/19 01:36:30;;;;;;;9.27;7.72;;;;;;;;;;4414699;32;316913;-83
2023/09/19 01:39:00;;;;;;;11.73;8.30;;;;;;;;;;4399085;32;388782;-86
2023/09/19 01:41:55;;;;;;;12.52;8.05;;;;;;;;;;4414921;32;317802;-86
2023/09/19 01:44:33;;;;;;;10.57;8.50;;;;;;;;;;4401987;32;418286;-83
2023/09/19 01:47:05;;;;;;;6.97;6.28;;;;;;;;;;4397610;32;418517;-84
2023/09/19 01:49:46;;;;;;;10.82;7.55;;;;;;;;;;4406070;32;316674;-83
2023/09/19 01:52:16;;;;;;;10.45;7.82;;;;;;;;;;4412982;32;317707;-83
2023/09/19 01:54:50;;;;;;;9.93;7.40;;;;;;;;;;4404403;32;317892;-85
2023/09/19 01:57:28;;;;;;;9.00;8.00;;;;;;;;;;4413786;32;316547;-83
2023/09/19 02:00:06;;;;;;;8.38;7.45;;;;;;;;;;4399996;32;417156;-84
2023/09/19 02:02:35;;;;;;;9.82;7.43;;;;;;;;;;4401194;32;316997;-83
2023/09/19 02:05:03;;;;;;;7.68;6.72;;;;;;;;;;4412352;32;316864;-83
2023/09/19 02:07:31;;;;;;;12.63;7.93;;;;;;;;;;4402911;32;397237;-83
2023/09/19 02:09:59;;;;;;;7.68;6.50;;;;;;;;;;4415685;32;317924;-85
2023/09/19 02:12:26;;;;;;;15.65;7.45;;;;;;;;;;4414604;32;317326;-83
2023/09/19 02:14:57;;;;;;;10.65;7.40;;;;;;;;;;4400909;32;318016;-83
2023/09/19 02:17:25;;;;;;;8.77;7.80;;;;;;;;;;4412190;32;318007;-83
2023/09/19 02:19:54;;;;;;;10.50;7.70;;;;;;;;;;4405283;32;317074;-83
2023/09/19 02:22:24;;;;;;;10.02;8.05;;;;;;;;;;4414863;32;317834;-83
2023/09/19 02:24:52;;;;;;;9.50;6.68;;;;;;;;;;4401823;32;317968;-83
2023/09/19 02:27:20;;;;;;;9.88;7.25;;;;;;;;;;4415103;32;316617;-86
2023/09/19 02:29:49;;;;;;;10.13;7.47;;;;;;;;;;4404012;32;316600;-83
2023/09/19 02:32:18;;;;;;;9.38;7.37;;;;;;;;;;4412835;32;318206;-83
2023/09/19 02:34:45;;;;;;;9.05;7.43;;;;;;;;;;4401710;32;316944;-83
2023/09/19 02:37:16;;;;;;;9.15;7.22;;;;;;;;;;4414916;32;316817;-83
2023/09/19 02:39:43;;;;;;;7.85;6.68;;;;;;;;;;4404303;32;319843;-83
2023/09/19 02:42:11;;;;;;;13.57;8.45;;;;;;;;;;4414425;32;316797;-83
2023/09/19 02:44:39;;;;;;;11.27;7.68;;;;;;;;;;4403832;32;317927;-83
2023/09/19 02:47:07;;;;;;;8.52;7.68;;;;;;;;;;4411494;32;356735;-84
2023/09/19 02:49:34;;;;;;;10.57;7.82;;;;;;;;;;4404146;32;316908;-84
2023/09/19 02:52:03;;;;;;;10.18;8.15;;;;;;;;;;4414364;32;317819;-83
2023/09/19 02:54:32;;;;;;;8.50;7.60;;;;;;;;;;4403379;32;317855;-84
2023/09/19 02:57:00;;;;;;;9.30;7.80;;;;;;;;;;4412172;32;316867;-84
2023/09/19 02:59:28;;;;;;;16.87;8.27;;;;;;;;;;4414855;32;316976;-84
2023/09/19 03:01:55;;;;;;;11.57;7.53;;;;;;;;;;4400286;32;417367;-84
2023/09/19 03:04:23;;;;;;;10.05;7.22;;;;;;;;;;4413895;32;317914;-85
2023/09/19 03:06:53;;;;;;;7.82;7.03;;;;;;;;;;4400175;32;317755;-84
2023/09/19 03:09:20;;;;;;;10.82;7.82;;;;;;;;;;4413044;32;316889;-84
2023/09/19 03:11:49;;;;;;;9.77;7.85;;;;;;;;;;4403844;32;317956;-84
2023/09/19 03:14:17;;;;;;;11.20;7.85;;;;;;;;;;4414436;32;316729;-83
2023/09/19 03:16:44;;;;;;;15.57;7.85;;;;;;;;;;4400255;32;345215;-85
2023/09/19 03:19:12;;;;;;;10.05;8.02;;;;;;;;;;4414400;32;317923;-83
2023/09/19 03:21:39;;;;;;;9.35;8.40;;;;;;;;;;4403288;32;334319;-84
2023/09/19 03:24:07;;;;;;;10.77;7.30;;;;;;;;;;4414753;32;316673;-84
2023/09/19 03:26:35;;;;;;;13.32;7.53;;;;;;;;;;4404455;32;318044;-85
2023/09/19 03:29:08;;;;;;;10.15;7.70;;;;;;;;;;4411992;32;318230;-84
2023/09/19 03:31:37;;;;;;;16.35;7.93;;;;;;;;;;4401043;32;318010;-85
2023/09/19 03:34:05;;;;;;;9.75;7.35;;;;;;;;;;4414185;32;317823;-83
2023/09/19 03:36:32;;;;;;;11.32;7.70;;;;;;;;;;4400441;32;327732;-83
2023/09/19 03:38:59;;;;;;;18.45;13.90;;;;;;;;;;4411306;32;317913;-84
2023/09/19 03:41:27;;;;;;;31.92;20.52;;;;;;;;;;4414061;32;318960;-84
2023/09/19 03:43:54;;;;;;;31.40;17.58;;;;;;;;;;4403722;32;318980;-83
2023/09/19 03:46:23;;;;;;;31.25;21.30;;;;;;;;;;4412827;32;318940;-84
2023/09/19 03:48:50;;;;;;;23.42;18.70;;;;;;;;;;4400085;32;319029;-84
2023/09/19 03:51:17;;;;;;;27.37;20.35;;;;;;;;;;4412777;32;318896;-85
2023/09/19 03:53:45;;;;;;;30.05;21.27;;;;;;;;;;4403003;32;318753;-84
2023/09/19 03:56:12;;;;;;;17.58;15.70;;;;;;;;;;4414507;32;319186;-84
2023/09/19 03:58:40;;;;;;;16.73;11.80;;;;;;;;;;4402528;32;319052;-84
2023/09/19 04:01:07;;;;;;;11.50;10.25;;;;;;;;;;4408126;32;318859;-84
2023/09/19 04:03:46;;;;;;;14.77;9.60;;;;;;;;;;4402756;32;318693;-84
2023/09/19 04:06:13;;;;;;;12.23;8.63;;;;;;;;;;4413465;32;317974;-83
2023/09/19 04:08:41;;;;;;;13.98;8.75;;;;;;;;;;4404804;32;317788;-84
2023/09/19 04:11:09;;;;;;;10.15;8.38;;;;;;;;;;4412953;32;318099;-83
2023/09/19 04:13:36;;;;;;;11.70;8.15;;;;;;;;;;4402784;32;317989;-84
2023/09/19 04:16:06;;;;;;;10.23;9.00;;;;;;;;;;4413832;32;317934;-83
2023/09/19 04:18:37;;;;;;;18.27;9.15;;;;;;;;;;4402678;32;318498;-84
2023/09/19 04:21:06;;;;;;;12.45;7.87;;;;;;;;;;4412080;32;317985;-84
2023/09/19 04:23:33;;;;;;;13.77;9.00;;;;;;;;;;4402991;32;317808;-84
2023/09/19 04:26:01;;;;;;;12.65;8.20;;;;;;;;;;4416678;32;318007;-84
2023/09/19 04:28:28;;;;;;;11.18;8.48;;;;;;;;;;4416700;32;317949;-86
2023/09/19 04:30:56;;;;;;;9.70;7.87;;;;;;;;;;4397792;32;417323;-81
2023/09/19 04:33:23;;;;;;;15.18;8.25;;;;;;;;;;4415034;32;316965;-84
2023/09/19 04:35:51;;;;;;;13.23;10.10;;;;;;;;;;4404302;32;317755;-85
2023/09/19 04:38:21;;;;;;;16.35;9.80;;;;;;;;;;4416411;32;319275;-83
2023/09/19 04:40:48;;;;;;;18.90;8.90;;;;;;;;;;4401595;32;317995;-86
2023/09/19 04:43:17;;;;;;;25.80;9.50;;;;;;;;;;4415643;32;317999;-85
2023/09/19 04:45:44;;;;;;;14.70;9.57;;;;;;;;;;4406323;32;317682;-83
2023/09/19 04:48:11;;;;;;;12.45;9.45;;;;;;;;;;4413896;32;317861;-83
2023/09/19 04:50:39;;;;;;;22.60;11.05;;;;;;;;;;4405334;32;317801;-85
2023/09/19 04:53:07;;;;;;;17.65;10.30;;;;;;;;;;4414324;32;318858;-87
2023/09/19 04:55:36;;;;;;;19.12;10.73;;;;;;;;;;4405202;32;319215;-86
2023/09/19 04:58:04;;;;;;;23.58;10.88;;;;;;;;;;4416353;32;319036;-85
2023/09/19 05:00:34;;;;;;;16.30;11.27;;;;;;;;;;4407167;32;318732;-86
2023/09/19 05:03:03;;;;;;;20.90;12.07;;;;;;;;;;4412804;32;318985;-85
2023/09/19 05:05:31;;;;;;;17.60;11.85;;;;;;;;;;4405711;32;318921;-84
2023/09/19 05:07:59;;;;;;;18.98;11.70;;;;;;;;;;4414904;32;318865;-84
2023/09/19 05:10:26;;;;;;;25.02;13.10;;;;;;;;;;4416414;32;318860;-83
2023/09/19 05:12:57;;;;;;;21.33;12.35;;;;;;;;;;4401771;32;319095;-84
2023/09/19 05:15:24;;;;;;;26.25;18.02;;;;;;;;;;4416040;32;319066;-84
2023/09/19 05:17:54;;;;;;;16.98;11.98;;;;;;;;;;4403253;32;318787;-84
2023/09/19 05:20:24;;;;;;;17.37;12.02;;;;;;;;;;4415582;32;318982;-88
2023/09/19 05:22:58;;;;;;;19.27;11.55;;;;;;;;;;4402127;32;319128;-83
2023/09/19 05:25:29;;;;;;;15.45;10.40;;;;;;;;;;4414378;32;318661;-84
2023/09/19 05:27:58;;;;;;;18.60;12.25;;;;;;;;;;4403134;32;418302;-89
2023/09/19 05:30:29;;;;;;;18.95;11.98;;;;;;;;;;4415613;32;319181;-85
2023/09/19 05:32:57;;;;;;;19.08;12.10;;;;;;;;;;4398890;32;418322;-83
2023/09/19 05:35:28;;;;;;;22.23;12.23;;;;;;;;;;4413423;32;318780;-94
2023/09/19 05:37:56;;;;;;;23.30;12.80;;;;;;;;;;4387675;32;418290;-93
2023/09/19 05:40:24;;;;;;;19.23;12.13;;;;;;;;;;4415943;32;318767;-86
2023/09/19 05:42:52;;;;;;;19.17;12.60;;;;;;;;;;4400775;32;318894;-91
2023/09/19 05:45:23;;;;;;;26.15;11.77;;;;;;;;;;4414107;32;318536;-84
2023/09/19 05:47:51;;;;;;;24.87;13.10;;;;;;;;;;4402451;32;318925;-88
2023/09/19 05:50:19;;;;;;;21.98;12.23;;;;;;;;;;4416094;32;318937;-86
2023/09/19 05:52:53;;;;;;;17.15;12.35;;;;;;;;;;4400083;32;319035;-84
2023/09/19 05:55:20;;;;;;;17.12;11.20;;;;;;;;;;4414176;32;318657;-85
2023/09/19 05:57:51;;;;;;;18.00;10.30;;;;;;;;;;4403581;32;318993;-85
2023/09/19 06:00:22;;;;;;;18.50;11.45;;;;;;;;;;4415311;32;318854;-85
2023/09/19 06:02:52;;;;;;;14.50;11.20;;;;;;;;;;4400893;32;318774;-88
2023/09/19 06:05:19;;;;;;;17.05;10.73;;;;;;;;;;4413811;32;318669;-87
2023/09/19 06:07:47;;;;;;;12.77;11.10;;;;;;;;;;4403213;32;318878;-87
2023/09/19 06:10:14;;;;;;;18.40;12.07;;;;;;;;;;4414085;32;323950;-87
2023/09/19 06:12:43;;;;;;;13.15;10.00;;;;;;;;;;4402675;32;318865;-87
2023/09/19 06:15:14;;;;;;;14.20;10.52;;;;;;;;;;4413151;32;317509;-87
2023/09/19 06:17:44;;;;;;;15.52;11.85;;;;;;;;;;4403050;32;319018;-87
2023/09/19 06:20:15;;;;;;;15.73;10.77;;;;;;;;;;4413838;32;357605;-87
2023/09/19 06:22:43;;;;;;;17.65;12.40;;;;;;;;;;4403779;32;319058;-87
2023/09/19 06:25:12;;;;;;;15.23;11.80;;;;;;;;;;4411483;32;318670;-87
2023/09/19 06:27:42;;;;;;;14.70;11.27;;;;;;;;;;4403276;32;318868;-87
2023/09/19 06:30:11;;;;;;;14.75;11.57;;;;;;;;;;4412186;32;318832;-86
2023/09/19 06:32:38;;;;;;;14.23;11.50;;;;;;;;;;4401538;32;318874;-87
2023/09/19 06:35:10;;;;;;;21.37;11.40;;;;;;;;;;4409838;32;318451;-87
2023/09/19 06:37:38;;;;;;;19.20;11.40;;;;;;;;;;4403168;32;318690;-87
2023/09/19 06:40:09;;;;;;;17.48;11.43;;;;;;;;;;4412870;32;318589;-87
2023/09/19 06:42:37;;;;;;;16.23;11.07;;;;;;;;;;4401912;32;319014;-87
2023/09/19 06:45:07;;;;;;;18.37;11.32;;;;;;;;;;4412037;32;318724;-87
2023/09/19 06:47:34;;;;;;;19.80;12.00;;;;;;;;;;4402544;32;318962;-86
2023/09/19 06:50:02;;;;;;;17.70;11.38;;;;;;;;;;4412150;32;318671;-87
2023/09/19 06:52:32;;;;;;;20.90;13.30;;;;;;;;;;4411967;32;319229;-86
2023/09/19 06:54:59;;;;;;;16.48;11.73;;;;;;;;;;4397902;32;418558;-85
2023/09/19 06:57:26;;;;;;;21.70;14.32;;;;;;;;;;4412794;32;338913;-87
2023/09/19 06:59:54;;;;;;;17.37;11.85;;;;;;;;;;4402627;32;319122;-86
2023/09/19 07:02:21;;;;;;;19.95;13.45;;;;;;;;;;4413494;32;318670;-86
2023/09/19 07:04:49;;;;;;;28.25;15.13;;;;;;;;;;4399743;32;318716;-86
2023/09/19 07:07:16;;;;;;;22.15;14.07;;;;;;;;;;4411885;32;355181;-88
2023/09/19 07:09:48;;;;;;;35.50;20.05;;;;;;;;;;4403252;32;318908;-88
2023/09/19 07:12:17;;;;;;;20.45;13.73;;;;;;;;;;4411891;32;318686;-88
2023/09/19 07:14:45;;;;;;;17.73;12.55;;;;;;;;;;4398548;32;318859;-88
2023/09/19 07:17:12;;;;;;;22.75;12.43;;;;;;;;;;4413812;32;319151;-88
2023/09/19 07:19:40;;;;;;;16.87;12.02;;;;;;;;;;4403039;32;318608;-88
2023/09/19 07:22:08;;;;;;;18.40;12.45;;;;;;;;;;4412722;32;319092;-88
2023/09/19 07:24:37;;;;;;;22.50;12.77;;;;;;;;;;4404024;32;318915;-88
2023/09/19 07:27:06;;;;;;;19.02;13.30;;;;;;;;;;4410205;32;317630;-88
2023/09/19 07:29:33;;;;;;;16.25;12.63;;;;;;;;;;4399357;32;318840;-89
2023/09/19 07:32:01;;;;;;;16.90;11.77;;;;;;;;;;4411517;32;318613;-88
2023/09/19 07:34:29;;;;;;;14.70;12.30;;;;;;;;;;4413354;32;318813;-88
2023/09/19 07:36:56;;;;;;;19.70;12.02;;;;;;;;;;4397439;32;389161;-88
2023/09/19 07:39:24;;;;;;;19.83;12.05;;;;;;;;;;4413915;32;318657;-88
2023/09/19 07:41:51;;;;;;;16.20;11.65;;;;;;;;;;4402747;32;318715;-88
2023/09/19 07:44:21;;;;;;;21.67;11.73;;;;;;;;;;4409296;32;318731;-89
2023/09/19 07:46:50;;;;;;;16.85;11.95;;;;;;;;;;4397531;32;319187;-88
2023/09/19 07:49:19;;;;;;;17.50;11.12;;;;;;;;;;4411584;32;318615;-88
2023/09/19 07:51:46;;;;;;;15.68;11.70;;;;;;;;;;4402633;32;318887;-89
2023/09/19 07:54:14;;;;;;;16.77;11.20;;;;;;;;;;4411965;32;318881;-89
2023/09/19 07:56:41;;;;;;;20.67;11.88;;;;;;;;;;4398931;32;318757;-89
2023/09/19 07:59:11;;;;;;;13.80;11.07;;;;;;;;;;4415644;32;318744;-88
2023/09/19 08:01:41;;;;;;;18.27;11.17;;;;;;;;;;4404429;32;319124;-89
2023/09/19 08:04:09;;;;;;;13.48;11.20;;;;;;;;;;4417071;32;318785;-87
2023/09/19 08:06:38;;;;;;;13.85;11.05;;;;;;;;;;4405533;32;318698;-87
2023/09/19 08:09:10;;;;;;;14.20;10.93;;;;;;;;;;4416509;32;318432;-89
2023/09/19 08:11:39;;;;;;;20.07;10.30;;;;;;;;;;4404049;32;343364;-89
2023/09/19 08:14:07;;;;;;;17.27;11.77;;;;;;;;;;4417167;32;318798;-89
2023/09/19 08:16:34;;;;;;;14.57;10.77;;;;;;;;;;4401764;32;319016;-88
2023/09/19 08:19:03;;;;;;;12.57;9.55;;;;;;;;;;4412980;32;318553;-88
2023/09/19 08:21:31;;;;;;;12.68;9.90;;;;;;;;;;4405099;32;318000;-89
2023/09/19 08:24:09;;;;;;;12.68;10.45;;;;;;;;;;4417660;32;317927;-88
2023/09/19 08:26:37;;;;;;;16.45;10.27;;;;;;;;;;4405044;32;318809;-89
2023/09/19 08:29:07;;;;;;;13.07;9.55;;;;;;;;;;4413155;32;318798;-88
2023/09/19 08:31:34;;;;;;;10.93;9.65;;;;;;;;;;4403195;32;317617;-88
2023/09/19 08:34:04;;;;;;;11.43;8.98;;;;;;;;;;4414543;32;317543;-88
2023/09/19 08:36:31;;;;;;;19.80;11.27;;;;;;;;;;4405546;32;317800;-89
2023/09/19 08:38:59;;;;;;;12.00;9.30;;;;;;;;;;4412320;32;319154;-88
2023/09/19 08:41:26;;;;;;;11.80;9.65;;;;;;;;;;4415536;32;317820;-87
2023/09/19 08:43:54;;;;;;;13.77;9.00;;;;;;;;;;4404875;32;317865;-87
2023/09/19 08:46:24;;;;;;;13.23;10.18;;;;;;;;;;4415520;32;317742;-87
2023/09/19 08:49:03;;;;;;;11.38;9.35;;;;;;;;;;4402072;32;318828;-87
2023/09/19 08:51:45;;;;;;;10.18;9.07;;;;;;;;;;4402669;32;318088;-87
2023/09/19 08:54:22;;;;;;;10.18;8.77;;;;;;;;;;4413530;32;317742;-86
2023/09/19 08:56:51;;;;;;;14.85;8.80;;;;;;;;;;4402289;32;317578;-88
2023/09/19 08:59:24;;;;;;;10.60;9.50;;;;;;;;;;4413848;32;316695;-87
2023/09/19 09:01:53;;;;;;;9.57;8.45;;;;;;;;;;4401424;32;317568;-89
2023/09/19 09:04:22;;;;;;;13.95;9.88;;;;;;;;;;4413919;32;317003;-89
2023/09/19 09:06:54;;;;;;;19.15;9.15;;;;;;;;;;4401347;32;317727;-87
2023/09/19 09:09:22;;;;;;;14.93;9.48;;;;;;;;;;4414132;32;317717;-87
2023/09/19 09:11:52;;;;;;;13.73;8.75;;;;;;;;;;4403778;32;317648;-86
2023/09/19 09:14:21;;;;;;;14.13;9.65;;;;;;;;;;4410048;32;317941;-86
2023/09/19 09:16:50;;;;;;;22.98;16.17;;;;;;;;;;4400568;32;317776;-86
2023/09/19 09:19:24;;;;;;;12.63;9.25;;;;;;;;;;4413024;32;318954;-86
2023/09/19 09:21:53;;;;;;;17.70;9.55;;;;;;;;;;4403709;32;317864;-86
2023/09/19 09:24:30;;;;;;;13.32;9.27;;;;;;;;;;4414362;32;317753;-87
2023/09/19 09:26:58;;;;;;;12.35;9.20;;;;;;;;;;4399038;32;417004;-86
2023/09/19 09:29:50;;;;;;;9.65;8.23;;;;;;;;;;4413992;32;317872;-86
2023/09/19 09:32:25;;;;;;;14.55;8.75;;;;;;;;;;4402257;32;387115;-87
2023/09/19 09:34:54;;;;;;;12.10;9.18;;;;;;;;;;4401809;32;318004;-87
2023/09/19 09:37:24;;;;;;;17.60;10.32;;;;;;;;;;4414759;32;317891;-87
2023/09/19 09:39:54;;;;;;;9.95;8.90;;;;;;;;;;4403581;32;319259;-87
2023/09/19 09:42:33;;;;;;;13.18;9.65;;;;;;;;;;4414246;32;325218;-87
2023/09/19 09:45:17;;;;;;;14.50;9.82;;;;;;;;;;4399863;32;417402;-85
2023/09/19 09:47:55;;;;;;;12.25;9.50;;;;;;;;;;4404115;32;317746;-85
2023/09/19 09:50:44;;;;;;;13.88;9.10;;;;;;;;;;4412984;32;317713;-88
2023/09/19 09:53:28;;;;;;;10.93;8.82;;;;;;;;;;4398016;32;419931;-88
2023/09/19 09:56:00;;;;;;;15.68;8.82;;;;;;;;;;4401949;32;421265;-88
2023/09/19 09:58:29;;;;;;;12.93;9.18;;;;;;;;;;4414742;32;317651;-89
2023/09/19 10:01:02;;;;;;;10.98;7.82;;;;;;;;;;4396055;32;418476;-88
2023/09/19 10:03:38;;;;;;;17.37;10.40;;;;;;;;;;4412426;32;317735;-88
2023/09/19 10:06:24;;;;;;;11.60;8.82;;;;;;;;;;4400354;32;418858;-87
2023/09/19 10:09:12;;;;;;;17.27;9.20;;;;;;;;;;4397285;32;318020;-87
2023/09/19 10:11:44;;;;;;;16.98;8.23;;;;;;;;;;4402822;32;317793;-87
2023/09/19 10:14:13;;;;;;;16.87;9.57;;;;;;;;;;4414111;32;317989;-87
2023/09/19 10:16:49;;;;;;;15.68;9.65;;;;;;;;;;4400935;32;353396;-87
2023/09/19 10:19:33;;;;;;;13.48;9.15;;;;;;;;;;4413098;32;317828;-87
2023/09/19 10:22:02;;;;;;;13.60;8.40;;;;;;;;;;4399628;32;418074;-86
2023/09/19 10:24:32;;;;;;;15.60;9.98;;;;;;;;;;4414124;32;317737;-86
2023/09/19 10:27:01;;;;;;;14.57;10.63;;;;;;;;;;4397965;32;417576;-86
2023/09/19 10:29:31;;;;;;;15.68;10.23;;;;;;;;;;4412672;32;318966;-86
2023/09/19 10:32:01;;;;;;;14.93;9.32;;;;;;;;;;4399981;32;418813;-85
2023/09/19 10:34:30;;;;;;;17.20;10.43;;;;;;;;;;4412070;32;317729;-85
2023/09/19 10:36:58;;;;;;;18.45;8.95;;;;;;;;;;4397614;32;418818;-86
2023/09/19 10:39:26;;;;;;;15.95;10.52;;;;;;;;;;4414524;32;317904;-85
2023/09/19 10:41:58;;;;;;;22.08;10.43;;;;;;;;;;4403132;32;318781;-86
2023/09/19 10:44:28;;;;;;;15.77;11.45;;;;;;;;;;4413028;32;318851;-87
2023/09/19 10:47:01;;;;;;;22.60;11.27;;;;;;;;;;4398999;32;418181;-88
2023/09/19 10:49:31;;;;;;;14.27;9.65;;;;;;;;;;4412543;32;318820;-89
2023/09/19 10:52:01;;;;;;;15.88;9.93;;;;;;;;;;4399641;32;418082;-86
2023/09/19 10:54:36;;;;;;;17.23;11.85;;;;;;;;;;4413170;32;335390;-86
2023/09/19 10:57:08;;;;;;;23.30;10.82;;;;;;;;;;4397194;32;418068;-85
2023/09/19 10:59:36;;;;;;;13.38;9.55;;;;;;;;;;4403287;32;345016;-86
2023/09/19 11:02:18;;;;;;;15.00;9.82;;;;;;;;;;4413672;32;317956;-87
2023/09/19 11:04:48;;;;;;;13.15;9.55;;;;;;;;;;4398850;32;317914;-88
2023/09/19 11:07:16;;;;;;;15.15;9.82;;;;;;;;;;4412540;32;318093;-85
2023/09/19 11:09:53;;;;;;;12.10;10.15;;;;;;;;;;4402950;32;317682;-86
2023/09/19 11:12:58;;;;;;;14.52;9.77;;;;;;;;;;4412663;32;317779;-86
2023/09/19 11:16:13;;;;;;;15.68;10.38;;;;;;;;;;4347737;32;417440;-86
2023/09/19 11:18:56;;;;;;;13.87;10.10;;;;;;;;;;4337421;32;418635;-87
2023/09/19 11:21:41;;;;;;;13.60;9.88;;;;;;;;;;4404909;32;318886;-87
2023/09/19 11:24:35;;;;;;;13.18;9.75;;;;;;;;;;4400169;32;418230;-86
2023/09/19 11:27:17;;;;;;;13.75;9.60;;;;;;;;;;4396525;32;418150;-87
2023/09/19 11:29:48;;;;;;;14.23;10.70;;;;;;;;;;4403156;32;317946;-87
2023/09/19 11:32:17;;;;;;;11.40;8.68;;;;;;;;;;4413017;32;317514;-86
2023/09/19 11:34:50;;;;;;;19.45;10.55;;;;;;;;;;4399764;32;318025;-87
2023/09/19 11:38:10;;;;;;;16.45;10.02;;;;;;;;;;4413480;32;318658;-86
2023/09/19 11:40:39;;;;;;;17.53;10.50;;;;;;;;;;4399434;32;418673;-87
2023/09/19 11:43:31;;;;;;;15.73;10.35;;;;;;;;;;4410849;32;318772;-86
2023/09/19 11:46:09;;;;;;;17.92;10.52;;;;;;;;;;4399562;32;419290;-87
2023/09/19 11:48:38;;;;;;;16.25;9.98;;;;;;;;;;4403425;32;318533;-87
2023/09/19 11:51:19;;;;;;;12.48;10.25;;;;;;;;;;4409008;32;317610;-87
2023/09/19 11:53:49;;;;;;;36.35;11.43;;;;;;;;;;4401396;32;318680;-91
2023/09/19 11:56:18;;;;;;;14.10;9.93;;;;;;;;;;4414499;32;318992;-93
2023/09/19 11:58:48;;;;;;;20.52;10.32;;;;;;;;;;4403727;32;317734;-93
2023/09/19 12:01:24;;;;;;;16.77;10.23;;;;;;;;;;4412142;32;346430;-86
2023/09/19 12:03:56;;;;;;;11.93;10.13;;;;;;;;;;4389600;32;318916;-84
2023/09/19 12:06:24;;;;;;;20.23;10.30;;;;;;;;;;4386935;32;319307;-85
2023/09/19 12:08:53;;;;;;;12.48;10.95;;;;;;;;;;4400745;32;318784;-86
2023/09/19 12:11:24;;;;;;;14.02;10.57;;;;;;;;;;4412136;32;359706;-86
2023/09/19 12:13:53;;;;;;;16.12;10.70;;;;;;;;;;4400810;32;319164;-85
2023/09/19 12:16:23;;;;;;;15.25;10.20;;;;;;;;;;4411820;32;318826;-85
2023/09/19 12:18:51;;;;;;;15.57;12.45;;;;;;;;;;4395909;32;319006;-84
2023/09/19 12:21:27;;;;;;;14.95;10.68;;;;;;;;;;4413281;32;318814;-84
2023/09/19 12:24:05;;;;;;;11.38;9.57;;;;;;;;;;4400811;32;348456;-89
2023/09/19 12:26:41;;;;;;;11.38;10.27;;;;;;;;;;4403141;32;317720;-91
2023/09/19 12:29:14;;;;;;;13.98;9.80;;;;;;;;;;4412360;32;319082;-86
2023/09/19 12:31:54;;;;;;;14.27;9.73;;;;;;;;;;4399315;32;318115;-88
2023/09/19 12:34:26;;;;;;;15.80;10.02;;;;;;;;;;4413067;32;318026;-88
2023/09/19 12:37:14;;;;;;;14.05;9.88;;;;;;;;;;4395004;32;319193;-90
2023/09/19 12:39:43;;;;;;;15.13;10.83;;;;;;;;;;4397522;32;318179;-87
2023/09/19 12:42:14;;;;;;;13.65;9.85;;;;;;;;;;4413803;32;333082;-88
2023/09/19 12:44:46;;;;;;;11.80;9.95;;;;;;;;;;4400306;32;318096;-90
2023/09/19 12:47:23;;;;;;;16.33;10.50;;;;;;;;;;4414803;32;318069;-88
2023/09/19 12:50:18;;;;;;;17.75;11.20;;;;;;;;;;4402879;32;360698;-88
2023/09/19 12:52:48;;;;;;;12.60;9.80;;;;;;;;;;4398552;32;318712;-86
2023/09/19 12:55:26;;;;;;;11.27;9.98;;;;;;;;;;4414139;32;317808;-86
2023/09/19 12:58:03;;;;;;;13.30;10.10;;;;;;;;;;4404136;32;318117;-86
2023/09/19 13:00:35;;;;;;;20.00;11.38;;;;;;;;;;4404584;32;319181;-89
2023/09/19 13:03:26;;;;;;;11.52;10.32;;;;;;;;;;4410639;32;319020;-87
2023/09/19 13:05:55;;;;;;;11.65;10.45;;;;;;;;;;4402527;32;319169;-88
2023/09/19 13:08:26;;;;;;;13.48;10.48;;;;;;;;;;4415868;32;318917;-88
2023/09/19 13:11:12;;;;;;;15.45;11.68;;;;;;;;;;4393911;32;318896;-89
2023/09/19 13:13:48;;;;;;;11.85;9.90;;;;;;;;;;4404740;32;318950;-91
2023/09/19 13:16:19;;;;;;;17.30;11.23;;;;;;;;;;4415486;32;317819;-90
2023/09/19 13:18:53;;;;;;;18.15;9.95;;;;;;;;;;4404423;32;318842;-90
2023/09/19 13:21:32;;;;;;;13.30;10.68;;;;;;;;;;4416354;32;317833;-90
2023/09/19 13:24:20;;;;;;;15.15;10.73;;;;;;;;;;4403657;32;319003;-90
2023/09/19 13:26:50;;;;;;;16.90;10.65;;;;;;;;;;4402741;32;319106;-90
2023/09/19 13:29:18;;;;;;;15.55;9.48;;;;;;;;;;4414283;32;318998;-91
2023/09/19 13:31:48;;;;;;;12.27;10.93;;;;;;;;;;4404275;32;318115;-91
2023/09/19 13:34:17;;;;;;;10.63;9.27;;;;;;;;;;4415545;32;318783;-91
2023/09/19 13:36:47;;;;;;;13.57;9.70;;;;;;;;;;4405374;32;317773;-91
2023/09/19 13:39:15;;;;;;;10.93;9.82;;;;;;;;;;4411698;32;317768;-89
2023/09/19 13:41:43;;;;;;;16.67;9.90;;;;;;;;;;4400503;32;349894;-92
2023/09/19 13:44:11;;;;;;;12.48;10.07;;;;;;;;;;4416511;32;318056;-92
2023/09/19 13:46:40;;;;;;;12.82;10.20;;;;;;;;;;4414520;32;318997;-91
2023/09/19 13:49:07;;;;;;;13.13;10.68;;;;;;;;;;4412336;32;319011;-92
2023/09/19 13:51:36;;;;;;;13.73;10.27;;;;;;;;;;4414809;32;318871;-90
2023/09/19 13:54:04;;;;;;;13.15;10.70;;;;;;;;;;4402339;32;325350;-91
2023/09/19 13:56:33;;;;;;;12.95;10.82;;;;;;;;;;4414732;32;318738;-92
2023/09/19 13:59:01;;;;;;;13.93;10.95;;;;;;;;;;4400567;32;318885;-92
2023/09/19 14:01:28;;;;;;;12.18;10.13;;;;;;;;;;4413558;32;319024;-91
2023/09/19 14:03:57;;;;;;;14.77;10.75;;;;;;;;;;4404503;32;318878;-91
2023/09/19 14:06:24;;;;;;;16.40;11.27;;;;;;;;;;4414437;32;318851;-91
2023/09/19 14:08:53;;;;;;;13.02;11.12;;;;;;;;;;4403129;32;318858;-92
2023/09/19 14:11:20;;;;;;;20.05;11.57;;;;;;;;;;4410484;32;318903;-91
2023/09/19 14:13:51;;;;;;;24.73;12.37;;;;;;;;;;4401156;32;318811;-91
2023/09/19 14:16:19;;;;;;;11.80;10.60;;;;;;;;;;4412833;32;318935;-92
2023/09/19 14:18:47;;;;;;;15.38;10.23;;;;;;;;;;4404010;32;318727;-91
2023/09/19 14:21:14;;;;;;;13.88;10.95;;;;;;;;;;4413895;32;318767;-89
2023/09/19 14:23:43;;;;;;;19.05;11.65;;;;;;;;;;4396382;32;318751;-92
2023/09/19 14:26:16;;;;;;;12.45;11.15;;;;;;;;;;4414509;32;318571;-93
2023/09/19 14:28:44;;;;;;;15.82;11.65;;;;;;;;;;4403444;32;318885;-93
2023/09/19 14:31:12;;;;;;;16.20;11.48;;;;;;;;;;4413257;32;353449;-94
2023/09/19 14:33:40;;;;;;;15.35;11.70;;;;;;;;;;4403827;32;379246;-91